createdAt,value
2019-04-16T00:01:08.337Z,94.50
2019-04-16T00:03:39.816Z,94.40
2019-04-16T00:06:26.533Z,94.30
2019-04-16T00:09:04.053Z,94.50
2019-04-16T00:11:36.228Z,94.70
2019-04-16T00:14:10.302Z,94.60
2019-04-16T00:16:41.339Z,94.50
2019-04-16T00:19:11.339Z,94.50
2019-04-16T00:21:45.555Z,94.50
2019-04-16T00:24:23.100Z,94.50
2019-04-16T00:26:58.014Z,94.60
2019-04-16T00:29:24.269Z,94.50
2019-04-16T00:31:55.921Z,94.50
2019-04-16T00:34:25.701Z,94.70
2019-04-16T00:36:55.451Z,94.60
2019-04-16T00:39:25.655Z,94.60
2019-04-16T00:41:55.503Z,94.50
2019-04-16T00:44:26.220Z,94.50
2019-04-16T00:46:56.919Z,94.50
2019-04-16T00:49:27.210Z,94.50
2019-04-16T00:51:57.032Z,94.40
2019-04-16T00:54:26.806Z,94.50
2019-04-16T00:56:56.516Z,94.40
2019-04-16T00:59:26.244Z,94.40
2019-04-16T01:01:56.051Z,94.60
2019-04-16T01:04:26.968Z,94.70
2019-04-16T01:06:56.757Z,94.70
2019-04-16T01:09:26.512Z,94.40
2019-04-16T01:11:56.291Z,94.40
2019-04-16T01:14:26.787Z,94.40
2019-04-16T01:16:57.099Z,94.40
2019-04-16T01:19:26.872Z,94.60
2019-04-16T01:21:56.623Z,94.70
2019-04-16T01:24:26.404Z,94.80
2019-04-16T01:26:58.294Z,94.80
2019-04-16T01:29:27.591Z,94.80
2019-04-16T01:32:15.442Z,94.70
2019-04-16T01:34:49.766Z,94.70
2019-04-16T01:37:25.514Z,94.70
2019-04-16T01:40:00.008Z,94.60
2019-04-16T01:42:29.754Z,94.60
2019-04-16T01:45:00.911Z,94.70
2019-04-16T01:47:35.788Z,94.80
2019-04-16T01:50:03.268Z,94.80
2019-04-16T01:52:32.925Z,94.80
2019-04-16T01:55:04.759Z,94.60
2019-04-16T01:57:34.566Z,94.60
2019-04-16T02:00:08.447Z,94.60
2019-04-16T02:02:38.703Z,94.70
2019-04-16T02:05:08.573Z,94.80
2019-04-16T02:07:38.237Z,94.90
2019-04-16T02:10:08.114Z,95.10
2019-04-16T02:12:38.548Z,95.10
2019-04-16T02:15:08.846Z,95.20
2019-04-16T02:17:38.568Z,95.20
2019-04-16T02:20:08.349Z,95.60
2019-04-16T02:22:38.206Z,95.40
2019-04-16T02:25:08.797Z,95.40
2019-04-16T02:27:38.559Z,95.30
2019-04-16T02:30:09.344Z,95.30
2019-04-16T02:32:50.809Z,95.40
2019-04-16T02:35:20.685Z,95.40
2019-04-16T02:37:50.385Z,95.40
2019-04-16T02:40:20.145Z,95.50
2019-04-16T02:42:50.011Z,95.60
2019-04-16T02:45:23.484Z,95.70
2019-04-16T02:47:51.304Z,95.70
2019-04-16T02:50:30.164Z,95.60
2019-04-16T02:53:01.252Z,95.70
2019-04-16T02:55:32.602Z,95.70
2019-04-16T02:58:06.685Z,95.90
2019-04-16T03:00:53.084Z,96.00
2019-04-16T03:03:24.921Z,96.00
2019-04-16T03:06:00.693Z,96.00
2019-04-16T03:08:28.596Z,96.00
2019-04-16T03:10:58.287Z,96.10
2019-04-16T03:13:28.027Z,96.20
2019-04-16T03:16:05.851Z,96.30
2019-04-16T03:18:35.539Z,96.40
2019-04-16T03:21:05.462Z,96.50
2019-04-16T03:23:37.502Z,96.40
2019-04-16T03:26:06.990Z,96.30
2019-04-16T03:28:36.817Z,96.40
2019-04-16T03:31:08.906Z,96.50
2019-04-16T03:33:43.243Z,96.50
2019-04-16T03:36:09.934Z,96.50
2019-04-16T03:38:42.063Z,96.60
2019-04-16T03:41:11.101Z,96.40
2019-04-16T03:43:40.871Z,96.50
2019-04-16T03:46:12.796Z,96.50
2019-04-16T03:48:42.008Z,96.40
2019-04-16T03:51:11.762Z,96.50
2019-04-16T03:53:41.469Z,96.40
2019-04-16T03:56:11.217Z,96.40
2019-04-16T03:58:40.953Z,96.50
2019-04-16T04:01:10.715Z,96.50
2019-04-16T04:03:40.495Z,96.50
2019-04-16T04:06:10.300Z,96.60
2019-04-16T04:08:40.083Z,96.60
2019-04-16T04:11:10.692Z,96.70
2019-04-16T04:13:40.958Z,96.70
2019-04-16T04:16:10.789Z,96.50
2019-04-16T04:18:43.174Z,96.60
2019-04-16T04:21:11.883Z,96.60
2019-04-16T04:23:41.681Z,96.30
2019-04-16T04:26:11.444Z,96.60
2019-04-16T04:28:53.142Z,96.60
2019-04-16T04:31:22.907Z,96.70
2019-04-16T04:33:52.704Z,96.70
2019-04-16T04:36:22.973Z,96.60
2019-04-16T04:38:53.922Z,96.60
2019-04-16T04:41:24.294Z,96.60
2019-04-16T04:43:53.988Z,96.60
2019-04-16T04:46:23.709Z,96.50
2019-04-16T04:48:55.725Z,96.50
2019-04-16T04:51:24.951Z,96.50
2019-04-16T04:53:54.625Z,96.50
2019-04-16T04:56:27.721Z,96.50
2019-04-16T04:58:55.818Z,96.60
2019-04-16T05:01:25.598Z,96.60
2019-04-16T05:03:56.911Z,96.60
2019-04-16T05:06:31.360Z,96.60
2019-04-16T05:09:01.446Z,96.70
2019-04-16T05:11:32.855Z,96.70
2019-04-16T05:14:02.599Z,96.70
2019-04-16T05:16:34.363Z,96.60
2019-04-16T05:19:03.776Z,96.70
2019-04-16T05:21:33.482Z,96.80
2019-04-16T05:24:03.162Z,96.80
2019-04-16T05:26:33.592Z,96.70
2019-04-16T05:29:16.094Z,96.60
2019-04-16T05:31:43.434Z,96.70
2019-04-16T05:34:13.093Z,96.70
2019-04-16T05:36:46.544Z,96.70
2019-04-16T05:39:14.265Z,96.70
2019-04-16T05:41:44.023Z,96.70
2019-04-16T05:44:13.699Z,96.70
2019-04-16T05:46:46.668Z,96.70
2019-04-16T05:49:15.898Z,96.70
2019-04-16T05:51:45.690Z,96.70
2019-04-16T05:54:35.581Z,96.70
2019-04-16T05:57:26.192Z,96.70
2019-04-16T05:59:54.968Z,96.70
2019-04-16T06:02:29.333Z,96.80
2019-04-16T06:04:59.097Z,96.70
2019-04-16T06:07:28.799Z,96.70
2019-04-16T06:09:58.510Z,96.80
2019-04-16T06:12:32.448Z,96.80
2019-04-16T06:15:05.808Z,96.90
2019-04-16T06:17:53.433Z,96.70
2019-04-16T06:20:40.798Z,96.80
2019-04-16T06:23:15.247Z,96.80
2019-04-16T06:25:55.627Z,96.90
2019-04-16T06:28:29.811Z,96.90
2019-04-16T06:31:18.387Z,97.00
2019-04-16T06:33:49.743Z,97.00
2019-04-16T06:36:21.534Z,97.00
2019-04-16T06:38:54.987Z,97.00
2019-04-16T06:41:41.161Z,97.00
2019-04-16T06:44:04.009Z,97.00
2019-04-16T06:46:40.026Z,97.00
2019-04-16T06:49:26.572Z,97.10
2019-04-16T06:51:59.674Z,97.00
2019-04-16T06:54:33.667Z,97.00
2019-04-16T06:57:13.969Z,97.50
2019-04-16T07:00:02.346Z,97.10
2019-04-16T07:02:43.132Z,97.20
2019-04-16T07:05:12.914Z,97.10
2019-04-16T07:07:46.833Z,97.20
2019-04-16T07:10:28.933Z,97.20
2019-04-16T07:12:57.898Z,97.20
2019-04-16T07:15:29.175Z,97.20
2019-04-16T07:18:02.567Z,97.30
2019-04-16T07:20:31.107Z,97.20
2019-04-16T07:23:00.906Z,97.10
2019-04-16T07:25:31.776Z,97.10
2019-04-16T07:28:09.607Z,97.20
2019-04-16T07:30:56.947Z,97.40
2019-04-16T07:33:46.614Z,97.40
2019-04-16T07:36:28.009Z,97.50
2019-04-16T07:39:05.274Z,97.50
2019-04-16T07:41:35.687Z,97.40
2019-04-16T07:44:11.246Z,97.30
2019-04-16T07:46:55.036Z,97.40
2019-04-16T07:49:27.079Z,97.50
2019-04-16T07:52:15.345Z,97.40
2019-04-16T07:55:09.421Z,97.40
2019-04-16T07:57:39.219Z,97.40
2019-04-16T08:00:10.822Z,97.20
2019-04-16T08:02:40.619Z,97.20
2019-04-16T08:05:10.648Z,97.20
2019-04-16T08:07:40.444Z,97.20
2019-04-16T08:10:10.409Z,97.50
2019-04-16T08:12:42.333Z,97.20
2019-04-16T08:15:15.078Z,97.10
2019-04-16T08:17:43.698Z,97.20
2019-04-16T08:20:13.810Z,97.10
2019-04-16T08:22:47.216Z,97.20
2019-04-16T08:25:16.342Z,97.20
2019-04-16T08:27:47.203Z,97.20
2019-04-16T08:30:17.599Z,97.00
2019-04-16T08:32:48.927Z,97.00
2019-04-16T08:35:18.785Z,96.90
2019-04-16T08:37:49.555Z,96.90
2019-04-16T08:40:19.537Z,96.90
2019-04-16T08:42:49.317Z,97.00
2019-04-16T08:45:32.143Z,96.80
2019-04-16T08:48:03.016Z,96.80
2019-04-16T08:50:32.833Z,96.70
2019-04-16T08:53:02.624Z,96.30
2019-04-16T08:55:32.407Z,96.30
2019-04-16T08:58:06.105Z,96.40
2019-04-16T09:00:34.148Z,96.40
2019-04-16T09:03:03.899Z,96.40
2019-04-16T09:05:33.692Z,96.40
2019-04-16T09:08:22.177Z,96.40
2019-04-16T09:10:51.583Z,96.20
2019-04-16T09:13:41.094Z,96.20
2019-04-16T09:16:11.147Z,95.80
2019-04-16T09:21:28.084Z,95.60
2019-04-16T09:24:16.117Z,95.30
2019-04-16T09:26:47.459Z,95.20
2019-04-16T09:29:31.397Z,95.20
2019-04-16T09:32:18.995Z,95.00
2019-04-16T09:35:20.269Z,95.10
2019-04-16T09:37:54.842Z,95.20
2019-04-16T09:40:38.239Z,95.10
2019-04-16T09:45:50.630Z,95.10
2019-04-16T09:48:21.438Z,95.10
2019-04-16T09:50:51.252Z,95.10
2019-04-16T09:53:33.053Z,95.00
2019-04-16T09:55:52.779Z,95.00
2019-04-16T09:58:24.433Z,95.10
2019-04-16T10:00:55.873Z,95.10
2019-04-16T10:03:39.295Z,94.90
2019-04-16T10:06:09.093Z,94.80
2019-04-16T10:08:41.806Z,94.60
2019-04-16T10:11:10.249Z,94.70
2019-04-16T10:13:40.018Z,94.90
2019-04-16T10:16:13.385Z,95.00
2019-04-16T10:18:41.535Z,95.10
2019-04-16T10:21:11.308Z,95.20
2019-04-16T10:23:59.231Z,95.00
2019-04-16T10:26:29.004Z,95.00
2019-04-16T10:29:00.356Z,94.90
2019-04-16T10:31:30.384Z,95.20
2019-04-16T10:34:00.155Z,94.70
2019-04-16T10:36:30.111Z,94.60
2019-04-16T10:39:04.164Z,94.70
2019-04-16T10:41:37.097Z,94.70
2019-04-16T10:44:11.476Z,94.80
2019-04-16T10:46:43.051Z,94.90
2019-04-16T10:49:14.386Z,95.10
2019-04-16T10:52:02.267Z,95.10
2019-04-16T10:54:45.720Z,94.90
2019-04-16T10:57:33.337Z,94.70
2019-04-16T11:00:05.200Z,94.60
2019-04-16T11:02:36.910Z,94.70
2019-04-16T11:05:08.803Z,94.40
2019-04-16T11:07:40.100Z,94.30
2019-04-16T11:10:11.745Z,94.50
2019-04-16T11:12:41.626Z,94.50
2019-04-16T11:15:13.365Z,94.40
2019-04-16T11:17:43.099Z,94.40
2019-04-16T11:20:13.284Z,94.40
2019-04-16T11:22:43.047Z,94.40
2019-04-16T11:25:12.752Z,94.10
2019-04-16T11:27:42.502Z,94.00
2019-04-16T11:30:14.980Z,93.90
2019-04-16T11:32:44.727Z,93.80
2019-04-16T11:35:17.637Z,93.40
2019-04-16T11:37:46.334Z,93.50
2019-04-16T11:40:16.178Z,93.40
2019-04-16T11:42:45.962Z,93.60
2019-04-16T11:45:16.219Z,93.60
2019-04-16T11:47:48.176Z,93.80
2019-04-16T11:50:18.119Z,93.90
2019-04-16T11:52:48.633Z,94.00
2019-04-16T11:55:18.695Z,93.90
2019-04-16T11:57:49.043Z,94.00
2019-04-16T12:00:20.715Z,93.70
2019-04-16T12:02:52.025Z,93.90
2019-04-16T12:05:23.561Z,93.90
2019-04-16T12:07:55.143Z,93.90
2019-04-16T12:10:44.656Z,93.90
2019-04-16T12:13:16.108Z,93.90
2019-04-16T12:15:53.207Z,94.00
2019-04-16T12:18:24.673Z,94.00
2019-04-16T12:23:38.298Z,93.70
2019-04-16T12:26:25.934Z,93.60
2019-04-16T12:29:09.559Z,93.60
2019-04-16T12:34:51.309Z,93.50
2019-04-16T12:37:39.667Z,93.50
2019-04-16T12:40:11.215Z,93.50
2019-04-16T12:42:45.601Z,93.50
2019-04-16T12:45:25.904Z,93.50
2019-04-16T12:47:58.957Z,93.60
2019-04-16T12:50:37.007Z,93.60
2019-04-16T12:53:11.793Z,93.40
2019-04-16T12:55:55.218Z,93.70
2019-04-16T12:58:26.650Z,93.90
2019-04-16T13:01:04.691Z,94.10
2019-04-16T13:03:39.568Z,93.80
2019-04-16T13:06:13.930Z,93.50
2019-04-16T13:09:01.482Z,93.60
2019-04-16T13:11:37.559Z,93.40
2019-04-16T13:14:14.891Z,93.20
2019-04-16T13:17:02.678Z,93.40
2019-04-16T13:22:38.383Z,93.50
2019-04-16T13:25:22.416Z,93.50
2019-04-16T13:27:53.067Z,93.40
2019-04-16T13:30:22.970Z,93.00
2019-04-16T13:32:52.742Z,93.10
2019-04-16T13:35:22.514Z,93.40
2019-04-16T13:37:52.287Z,93.00
2019-04-16T13:40:22.611Z,92.70
2019-04-16T13:42:52.353Z,92.80
2019-04-16T13:45:27.251Z,92.70
2019-04-16T13:48:14.905Z,92.80
2019-04-16T13:50:37.977Z,92.80
2019-04-16T13:53:05.771Z,92.90
2019-04-16T13:55:55.160Z,92.80
2019-04-16T13:58:29.507Z,93.00
2019-04-16T14:01:00.966Z,93.30
2019-04-16T14:03:30.705Z,93.10
2019-04-16T14:06:00.549Z,92.80
2019-04-16T14:08:30.441Z,92.60
2019-04-16T14:11:00.198Z,92.60
2019-04-16T14:13:29.960Z,92.60
2019-04-16T14:15:59.844Z,92.80
2019-04-16T14:18:32.542Z,92.90
2019-04-16T14:21:03.086Z,92.90
2019-04-16T14:23:32.860Z,93.00
2019-04-16T14:26:02.767Z,93.10
2019-04-16T14:28:34.545Z,93.00
2019-04-16T14:31:04.090Z,92.90
2019-04-16T14:33:35.454Z,93.00
2019-04-16T14:36:06.628Z,93.00
2019-04-16T14:38:50.084Z,93.00
2019-04-16T14:41:19.891Z,93.00
2019-04-16T14:43:51.322Z,92.80
2019-04-16T14:46:21.309Z,92.90
2019-04-16T14:48:51.060Z,93.00
2019-04-16T14:51:21.002Z,93.00
2019-04-16T14:54:07.650Z,92.90
2019-04-16T14:56:42.048Z,93.00
2019-04-16T14:59:30.353Z,93.00
2019-04-16T15:01:52.556Z,92.90
2019-04-16T15:04:33.265Z,93.10
2019-04-16T15:07:19.249Z,93.40
2019-04-16T15:09:51.393Z,93.40
2019-04-16T15:12:35.655Z,93.50
2019-04-16T15:15:14.588Z,93.50
2019-04-16T15:17:45.919Z,93.40
2019-04-16T15:20:26.498Z,93.20
2019-04-16T15:23:14.266Z,93.20
2019-04-16T15:26:01.903Z,93.20
2019-04-16T15:28:48.584Z,93.40
2019-04-16T15:31:38.740Z,93.20
2019-04-16T15:34:13.192Z,93.20
2019-04-16T15:36:47.238Z,93.20
2019-04-16T15:39:17.534Z,93.10
2019-04-16T15:41:48.907Z,92.70
2019-04-16T15:44:32.570Z,92.40
2019-04-16T15:47:20.252Z,92.30
2019-04-16T15:50:00.553Z,92.10
2019-04-16T15:52:37.443Z,92.00
2019-04-16T15:55:11.425Z,92.30
2019-04-16T15:57:51.851Z,92.20
2019-04-16T16:00:39.523Z,92.30
2019-04-16T16:03:27.093Z,92.20
2019-04-16T16:06:16.891Z,92.10
2019-04-16T16:08:47.776Z,92.30
2019-04-16T16:11:56.416Z,92.30
2019-04-16T16:14:26.195Z,92.20
2019-04-16T16:16:56.163Z,91.90
2019-04-16T16:19:27.002Z,91.90
2019-04-16T16:21:57.006Z,91.90
2019-04-16T16:24:26.716Z,91.90
2019-04-16T16:26:56.847Z,91.60
2019-04-16T16:29:26.708Z,91.70
2019-04-16T16:31:56.532Z,91.40
2019-04-16T16:34:26.321Z,91.40
2019-04-16T16:36:56.280Z,91.30
2019-04-16T16:39:26.076Z,91.30
2019-04-16T16:41:56.022Z,91.00
2019-04-16T16:44:25.948Z,91.20
2019-04-16T16:46:58.564Z,91.30
2019-04-16T16:49:28.706Z,91.30
2019-04-16T16:52:18.671Z,91.00
2019-04-16T16:54:51.413Z,90.90
2019-04-16T16:57:22.789Z,90.60
2019-04-16T16:59:57.268Z,90.50
2019-04-16T17:02:34.682Z,90.30
2019-04-16T17:05:07.911Z,90.20
2019-04-16T17:07:37.806Z,90.40
2019-04-16T17:10:07.875Z,90.30
2019-04-16T17:12:37.601Z,89.40
2019-04-16T17:15:09.026Z,87.70
2019-04-16T17:17:39.195Z,88.00
2019-04-16T17:20:09.073Z,87.60
2019-04-16T17:22:40.693Z,87.70
2019-04-16T17:25:13.104Z,87.90
2019-04-16T17:27:51.310Z,88.10
2019-04-16T17:30:14.920Z,88.60
2019-04-16T17:32:44.712Z,88.90
2019-04-16T17:35:15.872Z,89.30
2019-04-16T17:37:45.884Z,89.50
2019-04-16T17:40:18.315Z,88.70
2019-04-16T17:42:49.649Z,87.90
2019-04-16T17:45:39.156Z,87.60
2019-04-16T17:48:13.331Z,88.10
2019-04-16T17:50:44.677Z,88.00
2019-04-16T17:53:16.152Z,88.60
2019-04-16T17:56:03.825Z,88.60
2019-04-16T17:58:36.399Z,88.90
2019-04-16T18:01:13.826Z,88.90
2019-04-16T18:03:45.183Z,89.20
2019-04-16T18:06:22.687Z,89.50
2019-04-16T18:09:03.071Z,90.00
2019-04-16T18:11:45.453Z,90.20
2019-04-16T18:14:17.043Z,90.30
2019-04-16T18:16:50.014Z,90.40
2019-04-16T18:19:27.461Z,90.30
2019-04-16T18:22:04.371Z,90.20
2019-04-16T18:24:42.989Z,90.40
2019-04-16T18:27:20.419Z,90.50
2019-04-16T18:29:51.750Z,90.80
2019-04-16T18:32:31.842Z,91.10
2019-04-16T18:35:09.148Z,91.20
2019-04-16T18:37:40.619Z,91.20
2019-04-16T18:40:25.070Z,91.30
2019-04-16T18:43:09.263Z,91.20
2019-04-16T18:45:57.118Z,90.80
2019-04-16T18:48:28.575Z,90.80
2019-04-16T18:51:00.551Z,90.90
2019-04-16T18:53:29.659Z,91.00
2019-04-16T18:55:59.624Z,91.10
2019-04-16T18:58:29.351Z,91.20
2019-04-16T19:01:00.904Z,91.50
2019-04-16T19:03:33.197Z,91.30
2019-04-16T19:06:03.014Z,91.10
2019-04-16T19:08:41.727Z,90.80
2019-04-16T19:11:05.965Z,90.70
2019-04-16T19:13:35.755Z,90.90
2019-04-16T19:16:05.620Z,91.20
2019-04-16T19:18:35.524Z,91.30
2019-04-16T19:21:05.394Z,91.50
2019-04-16T19:23:35.461Z,91.50
2019-04-16T19:26:05.652Z,91.50
2019-04-16T19:28:36.368Z,91.30
2019-04-16T19:31:06.733Z,91.60
2019-04-16T19:33:38.439Z,91.50
2019-04-16T19:36:08.534Z,91.60
2019-04-16T19:38:39.504Z,91.50
2019-04-16T19:41:10.030Z,91.30
2019-04-16T19:43:39.865Z,91.10
2019-04-16T19:46:15.264Z,91.10
2019-04-16T19:48:43.587Z,91.20
2019-04-16T19:51:13.386Z,91.30
2019-04-16T19:53:44.604Z,91.30
2019-04-16T19:56:18.324Z,91.10
2019-04-16T19:58:47.161Z,91.10
2019-04-16T20:01:19.209Z,91.10
2019-04-16T20:03:49.174Z,91.10
2019-04-16T20:06:18.950Z,91.30
2019-04-16T20:08:48.711Z,91.40
2019-04-16T20:11:21.350Z,91.60
2019-04-16T20:13:50.282Z,91.70
2019-04-16T20:16:21.159Z,91.60
2019-04-16T20:18:51.671Z,91.60
2019-04-16T20:21:21.822Z,91.50
2019-04-16T20:23:51.649Z,91.70
2019-04-16T20:26:21.496Z,91.90
2019-04-16T20:28:51.331Z,91.90
2019-04-16T20:31:21.070Z,91.70
2019-04-16T20:33:51.883Z,91.70
2019-04-16T20:36:22.711Z,91.80
2019-04-16T20:38:53.631Z,91.90
2019-04-16T20:41:23.528Z,92.20
2019-04-16T20:43:53.608Z,92.00
2019-04-16T20:46:23.527Z,91.80
2019-04-16T20:49:06.441Z,91.80
2019-04-16T20:51:26.608Z,91.90
2019-04-16T20:53:56.620Z,91.90
2019-04-16T20:56:26.530Z,91.90
2019-04-16T20:58:56.307Z,91.80
2019-04-16T21:01:35.477Z,91.70
2019-04-16T21:04:04.957Z,91.80
2019-04-16T21:06:29.088Z,91.70
2019-04-16T21:09:00.031Z,91.80
2019-04-16T21:11:29.867Z,91.80
2019-04-16T21:13:59.668Z,91.80
2019-04-16T21:16:33.446Z,91.80
2019-04-16T21:19:00.894Z,91.90
2019-04-16T21:21:30.779Z,91.90
2019-04-16T21:24:03.451Z,91.90
2019-04-16T21:26:32.402Z,92.10
2019-04-16T21:29:06.518Z,92.20
2019-04-16T21:31:43.785Z,92.30
2019-04-16T21:34:33.289Z,92.30
2019-04-16T21:37:18.061Z,92.30
2019-04-16T21:39:51.375Z,91.50
2019-04-16T21:42:21.055Z,91.90
2019-04-16T21:44:50.889Z,91.70
2019-04-16T21:47:23.142Z,91.40
2019-04-16T21:49:52.117Z,91.50
2019-04-16T21:52:23.098Z,91.40
2019-04-16T21:54:53.346Z,91.50
2019-04-16T21:57:23.111Z,91.50
2019-04-16T21:59:56.704Z,91.50
2019-04-16T22:02:25.915Z,91.50
2019-04-16T22:04:55.715Z,91.40
2019-04-16T22:07:25.610Z,91.50
2019-04-16T22:09:55.891Z,91.50
2019-04-16T22:12:25.849Z,91.80
2019-04-16T22:14:55.951Z,92.00
2019-04-16T22:17:25.845Z,91.90
2019-04-16T22:20:01.319Z,91.70
2019-04-16T22:22:27.748Z,91.60
2019-04-16T22:24:58.045Z,91.70
2019-04-16T22:27:27.865Z,91.50
2019-04-16T22:29:58.610Z,91.20
2019-04-16T22:32:30.872Z,91.10
2019-04-16T22:35:00.052Z,91.20
2019-04-16T22:37:30.007Z,91.00
2019-04-16T22:40:01.333Z,91.00
2019-04-16T22:42:51.295Z,90.80
2019-04-16T22:45:40.819Z,90.90
2019-04-16T22:48:10.616Z,90.90
2019-04-16T22:50:40.407Z,91.20
2019-04-16T22:53:10.260Z,91.20
2019-04-16T22:55:42.611Z,91.30
2019-04-16T22:58:13.178Z,91.30
2019-04-16T23:00:45.162Z,91.30
2019-04-16T23:03:16.643Z,91.50
2019-04-16T23:05:46.583Z,91.10
2019-04-16T23:08:16.430Z,91.10
2019-04-16T23:10:46.177Z,91.10
2019-04-16T23:13:15.935Z,91.20
2019-04-16T23:15:45.727Z,91.10
2019-04-16T23:18:17.516Z,91.20
2019-04-16T23:20:46.906Z,91.20
2019-04-16T23:23:19.088Z,90.90
2019-04-16T23:25:48.167Z,90.90
2019-04-16T23:28:17.975Z,90.90
2019-04-16T23:30:47.960Z,90.90
2019-04-16T23:33:19.204Z,90.80
2019-04-16T23:35:49.080Z,90.80
2019-04-16T23:38:18.855Z,90.70
2019-04-16T23:40:50.289Z,90.70
2019-04-16T23:43:23.043Z,90.70
2019-04-16T23:46:12.515Z,91.00
2019-04-16T23:48:47.865Z,91.00
2019-04-16T23:51:19.670Z,91.10
2019-04-16T23:53:53.838Z,91.00
2019-04-16T23:56:25.213Z,90.90
2019-04-16T23:59:08.791Z,90.80
